San Antonio North's Hourly Summary for Wednesday, May 9, 2018
Hour Temp
(f)
RH
(%)
Solar Rad.
(MJ/m2)
Rainfall
(in)
Wind
(mph)
5/9/2018 12:00 AM 71 43 0 0 0.99
5/9/2018 1:00 AM 69 59 0 0 0.97
5/9/2018 2:00 AM 67 72 0 0 1.1
5/9/2018 3:00 AM 66 83 0 0 0.49
5/9/2018 4:00 AM 64 89 0 0 0.08
5/9/2018 5:00 AM 63 92 0 0 0
5/9/2018 6:00 AM 63 94 0 0 0
5/9/2018 7:00 AM 63 94 0.01 0 0.04
5/9/2018 8:00 AM 65 86 0.23 0 0.09
5/9/2018 9:00 AM 68 82 0.55 0 0.65
5/9/2018 10:00 AM 70 69 0.97 0 1.11
5/9/2018 11:00 AM 75 55 2.04 0 1.52
5/9/2018 12:00 PM 79 48 3.01 0 1.58
5/9/2018 1:00 PM 82 43 3.34 0 1.79
5/9/2018 2:00 PM 84 38 3.55 0 2.05
5/9/2018 3:00 PM 86 34 3.49 0 1.88
5/9/2018 4:00 PM 88 31 3.13 0 1.66
5/9/2018 5:00 PM 88 30 2.61 0 2.07
5/9/2018 6:00 PM 88 29 1.95 0 1.85
5/9/2018 7:00 PM 87 28 1.19 0 1.88
5/9/2018 8:00 PM 84 28 0.43 0 1.84
5/9/2018 9:00 PM 80 36 0.01 0 1.62
5/9/2018 10:00 PM 76 44 0 0 1.82
5/9/2018 11:00 PM 73 49 0 0 1.98
Data Summary 74 56 26.51 0.00 1.21